createdAt,value
2018-06-11T00:02:17.538Z,21.50
2018-06-11T00:04:51.098Z,21.40
2018-06-11T00:07:23.937Z,21.20
2018-06-11T00:09:56.206Z,21.20
2018-06-11T00:12:32.277Z,21.20
2018-06-11T00:15:05.548Z,21.00
2018-06-11T00:17:38.255Z,20.90
2018-06-11T00:20:14.119Z,20.80
2018-06-11T00:22:48.602Z,20.70
2018-06-11T00:25:22.129Z,20.60
2018-06-11T00:27:58.619Z,20.50
2018-06-11T00:30:33.671Z,20.50
2018-06-11T00:33:05.996Z,20.40
2018-06-11T00:35:44.878Z,20.20
2018-06-11T00:38:18.581Z,20.10
2018-06-11T00:40:54.702Z,20.00
2018-06-11T00:43:27.003Z,19.90
2018-06-11T00:46:11.890Z,19.80
2018-06-11T00:48:51.439Z,19.70
2018-06-11T00:51:24.125Z,19.60
2018-06-11T00:53:58.331Z,19.70
2018-06-11T00:56:31.459Z,19.60
2018-06-11T00:59:04.722Z,19.60
2018-06-11T01:01:40.144Z,19.60
2018-06-11T01:04:12.974Z,19.60
2018-06-11T01:06:46.298Z,19.50
2018-06-11T01:09:21.182Z,19.60
2018-06-11T01:11:56.096Z,19.60
2018-06-11T01:14:44.188Z,19.50
2018-06-11T01:17:22.725Z,19.50
2018-06-11T01:20:04.482Z,19.50
2018-06-11T01:22:38.906Z,19.50
2018-06-11T01:33:59.729Z,19.30
2018-06-11T01:36:45.512Z,19.20
2018-06-11T01:39:28.953Z,19.10
2018-06-11T01:45:00.691Z,18.90
2018-06-11T01:47:45.773Z,18.80
2018-06-11T01:57:07.890Z,18.60
2018-06-11T01:59:52.863Z,18.60
2018-06-11T02:05:41.711Z,18.60
2018-06-11T02:17:48.371Z,18.50
2018-06-11T02:27:00.275Z,18.50
2018-06-11T02:29:52.751Z,18.60
2018-06-11T02:35:15.694Z,18.60
2018-06-11T02:37:57.045Z,18.60
2018-06-11T02:47:40.286Z,18.50
2018-06-11T02:55:47.109Z,18.30
2018-06-11T03:44:34.776Z,17.90
2018-06-11T03:47:46.321Z,17.80
2018-06-11T03:51:00.296Z,17.70
2018-06-11T03:53:43.148Z,17.60
2018-06-11T03:56:18.969Z,17.60
2018-06-11T04:02:27.443Z,17.70
2018-06-11T04:08:04.013Z,18.00
2018-06-11T04:10:39.161Z,18.00
2018-06-11T04:13:17.648Z,18.00
2018-06-11T04:15:51.620Z,18.00
2018-06-11T04:18:27.756Z,18.00
2018-06-11T04:21:08.079Z,18.00
2018-06-11T04:23:42.095Z,18.00
2018-06-11T04:26:15.639Z,17.90
2018-06-11T04:28:52.705Z,17.90
2018-06-11T04:31:53.915Z,17.90
2018-06-11T04:34:27.176Z,17.90
2018-06-11T04:37:00.364Z,17.90
2018-06-11T04:39:40.782Z,17.90
2018-06-11T04:42:24.673Z,17.90
2018-06-11T04:44:57.136Z,17.80
2018-06-11T04:47:46.647Z,17.80
2018-06-11T04:53:32.811Z,17.70
2018-06-11T04:56:06.401Z,17.70
2018-06-11T04:58:39.942Z,17.70
2018-06-11T05:01:19.421Z,17.70
2018-06-11T05:03:59.978Z,17.70
2018-06-11T05:12:04.854Z,17.70
2018-06-11T05:14:38.247Z,17.70
2018-06-11T05:17:22.784Z,17.60
2018-06-11T05:22:47.655Z,17.50
2018-06-11T05:25:20.077Z,17.50
2018-06-11T05:27:52.442Z,17.50
2018-06-11T05:30:37.675Z,17.60
2018-06-11T05:33:12.743Z,17.60
2018-06-11T05:35:53.044Z,17.70
2018-06-11T05:38:40.617Z,17.70
2018-06-11T05:41:16.796Z,17.80
2018-06-11T05:43:58.296Z,17.80
2018-06-11T05:46:32.920Z,17.80
2018-06-11T05:49:29.216Z,17.90
2018-06-11T05:52:17.363Z,18.00
2018-06-11T05:55:04.148Z,18.00
2018-06-11T05:57:42.399Z,18.00
2018-06-11T06:00:19.212Z,18.00
2018-06-11T06:02:55.326Z,18.10
2018-06-11T06:05:37.127Z,18.00
2018-06-11T06:08:13.509Z,18.00
2018-06-11T06:10:58.091Z,17.90
2018-06-11T06:13:36.222Z,17.80
2018-06-11T06:19:24.737Z,17.60
2018-06-11T06:21:58.936Z,17.50
2018-06-11T06:24:32.463Z,17.50
2018-06-11T06:27:21.869Z,17.40
2018-06-11T06:30:02.929Z,17.20
2018-06-11T06:36:32.160Z,17.00
2018-06-11T06:39:19.784Z,16.90
2018-06-11T06:41:53.600Z,16.90
2018-06-11T06:44:26.169Z,16.80
2018-06-11T06:47:00.518Z,16.90
2018-06-11T06:49:37.250Z,17.00
2018-06-11T06:52:14.921Z,17.00
2018-06-11T06:54:50.675Z,16.90
2018-06-11T06:57:30.017Z,16.90
2018-06-11T07:00:07.183Z,16.80
2018-06-11T07:05:34.289Z,16.70
2018-06-11T07:08:10.324Z,16.70
2018-06-11T07:10:47.583Z,16.60
2018-06-11T07:13:21.168Z,16.70
2018-06-11T07:15:56.228Z,16.80
2018-06-11T07:18:30.817Z,16.80
2018-06-11T07:21:03.527Z,16.80
2018-06-11T07:23:37.143Z,16.80
2018-06-11T07:26:10.459Z,16.80
2018-06-11T07:28:43.936Z,16.80
2018-06-11T07:31:17.283Z,16.70
2018-06-11T07:33:57.704Z,16.60
2018-06-11T07:36:37.892Z,16.60
2018-06-11T07:39:15.236Z,16.60
2018-06-11T07:41:50.678Z,16.70
2018-06-11T07:44:25.620Z,16.80
2018-06-11T07:50:04.523Z,16.70
2018-06-11T07:52:41.750Z,16.60
2018-06-11T07:55:15.649Z,16.70
2018-06-11T07:57:51.702Z,16.80
2018-06-11T08:00:38.467Z,16.80
2018-06-11T08:03:20.062Z,16.80
2018-06-11T08:06:21.570Z,16.80
2018-06-11T08:08:56.215Z,16.80
2018-06-11T08:11:37.208Z,16.80
2018-06-11T08:14:24.392Z,16.80
2018-06-11T08:20:10.044Z,16.60
2018-06-11T08:22:43.910Z,16.40
2018-06-11T08:25:16.942Z,16.40
2018-06-11T08:27:50.116Z,16.30
2018-06-11T08:30:23.017Z,16.50
2018-06-11T08:33:02.039Z,16.50
2018-06-11T08:35:39.248Z,16.50
2018-06-11T08:38:30.615Z,16.50
2018-06-11T08:41:33.648Z,16.30
2018-06-11T08:44:12.377Z,16.20
2018-06-11T08:46:47.987Z,16.10
2018-06-11T08:49:49.216Z,16.10
2018-06-11T08:52:25.108Z,16.10
2018-06-11T08:55:08.629Z,16.20
2018-06-11T09:03:34.866Z,16.00
2018-06-11T09:06:07.409Z,16.10
2018-06-11T09:08:45.910Z,16.20
2018-06-11T09:11:21.752Z,16.10
2018-06-11T09:16:38.087Z,16.10
2018-06-11T09:23:33.863Z,16.10
2018-06-11T09:26:12.817Z,16.20
2018-06-11T09:32:17.213Z,16.10
2018-06-11T09:35:15.270Z,16.10
2018-06-11T09:38:21.446Z,16.10
2018-06-11T09:41:00.932Z,16.00
2018-06-11T09:46:39.204Z,15.90
2018-06-11T09:49:19.533Z,15.80
2018-06-11T09:52:09.741Z,15.80
2018-06-11T09:54:47.859Z,15.90
2018-06-11T09:57:21.558Z,15.90
2018-06-11T10:02:49.443Z,16.10
2018-06-11T10:05:29.879Z,16.00
2018-06-11T10:08:12.566Z,16.00
2018-06-11T10:10:47.000Z,16.00
2018-06-11T10:13:26.309Z,15.90
2018-06-11T10:16:07.759Z,16.00
2018-06-11T10:18:42.746Z,16.00
2018-06-11T10:21:17.575Z,16.00
2018-06-11T10:23:53.492Z,16.00
2018-06-11T10:29:10.954Z,16.00
2018-06-11T10:31:53.729Z,16.00
2018-06-11T10:35:01.799Z,16.00
2018-06-11T10:37:36.704Z,15.90
2018-06-11T10:40:13.090Z,15.90
2018-06-11T10:42:46.142Z,15.90
2018-06-11T10:45:50.375Z,15.90
2018-06-11T10:48:42.842Z,15.90
2018-06-11T10:51:18.876Z,15.90
2018-06-11T10:56:44.545Z,15.90
2018-06-11T11:02:25.421Z,15.90
2018-06-11T11:08:23.421Z,15.90
2018-06-11T11:10:57.378Z,15.90
2018-06-11T11:13:38.417Z,16.00
2018-06-11T11:16:23.746Z,16.00
2018-06-11T11:19:02.029Z,16.00
2018-06-11T11:21:41.802Z,16.10
2018-06-11T11:24:19.403Z,16.10
2018-06-11T11:33:20.141Z,16.10
2018-06-11T11:36:08.864Z,16.00
2018-06-11T11:44:45.287Z,16.10
2018-06-11T11:50:30.917Z,16.20
2018-06-11T11:56:15.394Z,16.20
2018-06-11T11:58:51.366Z,16.30
2018-06-11T12:01:29.846Z,16.30
2018-06-11T12:04:20.415Z,16.30
2018-06-11T12:06:52.922Z,16.40
2018-06-11T12:09:25.996Z,16.40
2018-06-11T12:11:59.400Z,16.50
2018-06-11T12:14:32.819Z,16.50
2018-06-11T12:17:05.924Z,16.60
2018-06-11T12:19:41.470Z,16.60
2018-06-11T12:22:16.925Z,16.60
2018-06-11T12:24:49.415Z,16.70
2018-06-11T12:27:25.115Z,16.70
2018-06-11T12:30:04.075Z,16.80
2018-06-11T12:32:40.496Z,16.90
2018-06-11T12:35:16.833Z,16.90
2018-06-11T12:37:58.878Z,16.90
2018-06-11T12:40:35.501Z,17.00
2018-06-11T12:43:12.975Z,17.00
2018-06-11T12:45:54.552Z,17.10
2018-06-11T12:48:33.639Z,17.20
2018-06-11T12:51:09.223Z,17.30
2018-06-11T12:53:50.376Z,17.30
2018-06-11T12:56:25.053Z,17.30
2018-06-11T12:59:05.007Z,17.30
2018-06-11T13:01:38.518Z,17.40
2018-06-11T13:04:21.192Z,17.40
2018-06-11T13:07:21.061Z,17.40
2018-06-11T13:09:53.554Z,17.50
2018-06-11T13:12:25.787Z,17.60
2018-06-11T13:15:01.084Z,17.60
2018-06-11T13:17:35.912Z,17.70
2018-06-11T13:23:03.397Z,17.80
2018-06-11T13:26:11.739Z,17.90
2018-06-11T13:28:53.992Z,18.00
2018-06-11T13:38:08.909Z,18.40
2018-06-11T13:51:58.926Z,19.10
2018-06-11T13:54:54.786Z,19.10
2018-06-11T13:57:40.035Z,19.10
2018-06-11T14:00:13.703Z,19.20
2018-06-11T14:12:06.741Z,19.90
2018-06-11T14:14:43.685Z,20.00
2018-06-11T14:17:20.825Z,20.10
2018-06-11T14:19:53.975Z,20.30
2018-06-11T14:22:30.523Z,20.40
2018-06-11T14:25:06.180Z,20.50
2018-06-11T14:27:38.530Z,20.70
2018-06-11T14:30:12.789Z,21.20
2018-06-11T14:32:47.371Z,22.00
2018-06-11T14:35:21.749Z,22.70
2018-06-11T14:38:00.013Z,23.40
2018-06-11T14:44:08.829Z,24.70
2018-06-11T14:46:50.303Z,25.60
2018-06-11T14:49:30.322Z,26.30
2018-06-11T14:52:20.597Z,26.80
2018-06-11T14:55:03.756Z,27.10
2018-06-11T15:00:36.676Z,27.10
2018-06-11T15:03:27.706Z,27.90
2018-06-11T15:06:06.082Z,28.30
2018-06-11T15:08:40.362Z,27.40
2018-06-11T15:11:29.717Z,27.40
2018-06-11T15:14:20.168Z,27.80
2018-06-11T15:17:06.863Z,28.30
2018-06-11T15:23:20.885Z,29.10
2018-06-11T15:37:32.059Z,29.70
2018-06-11T15:40:13.060Z,30.60
2018-06-11T15:45:43.164Z,30.90
2018-06-11T15:48:45.690Z,30.60
2018-06-11T15:51:30.933Z,30.90
2018-06-11T15:54:07.026Z,31.50
2018-06-11T15:56:47.266Z,30.80
2018-06-11T16:00:05.785Z,30.40
2018-06-11T16:03:02.688Z,30.50
2018-06-11T16:05:41.092Z,30.60
2018-06-11T16:08:40.119Z,30.90
2018-06-11T16:11:19.434Z,31.10
2018-06-11T16:13:55.274Z,31.70
2018-06-11T16:16:45.379Z,31.90
2018-06-11T16:21:06.002Z,31.80
2018-06-11T16:24:01.141Z,32.10
2018-06-11T16:26:57.704Z,33.30
2018-06-11T16:29:51.137Z,33.00
2018-06-11T16:32:35.909Z,31.40
2018-06-11T16:41:16.941Z,29.40
2018-06-11T16:43:53.337Z,29.90
2018-06-11T16:49:13.393Z,32.00
2018-06-11T16:51:54.658Z,32.10
2018-06-11T16:54:31.788Z,33.00
2018-06-11T16:57:12.473Z,31.20
2018-06-11T16:59:54.973Z,29.40
2018-06-11T17:02:39.240Z,28.90
2018-06-11T17:05:15.029Z,30.30
2018-06-11T17:07:49.193Z,31.30
2018-06-11T17:10:43.027Z,31.40
2018-06-11T17:13:25.199Z,31.30
2018-06-11T17:16:02.303Z,30.90
2018-06-11T17:18:44.127Z,30.50
2018-06-11T17:22:11.507Z,29.80
2018-06-11T17:24:50.237Z,30.30
2018-06-11T17:27:32.057Z,29.80
2018-06-11T17:30:20.766Z,29.70
2018-06-11T17:32:54.323Z,30.90
2018-06-11T17:35:35.581Z,31.80
2018-06-11T17:44:10.447Z,29.40
2018-06-11T17:46:50.278Z,28.30
2018-06-11T17:49:33.729Z,28.40
2018-06-11T17:52:09.067Z,29.30
2018-06-11T17:54:46.030Z,30.30
2018-06-11T17:57:28.920Z,31.30
2018-06-11T18:00:11.265Z,30.60
2018-06-11T18:02:57.961Z,29.50
2018-06-11T18:05:48.139Z,29.20
2018-06-11T18:08:32.483Z,28.60
2018-06-11T18:11:09.679Z,28.50
2018-06-11T18:13:45.859Z,27.90
2018-06-11T18:16:18.963Z,27.60
2018-06-11T18:31:48.678Z,27.40
2018-06-11T18:34:31.648Z,26.90
2018-06-11T18:37:11.832Z,26.10
2018-06-11T18:40:18.702Z,26.00
2018-06-11T18:43:03.994Z,25.80
2018-06-11T18:46:00.532Z,26.00
2018-06-11T18:48:38.631Z,26.10
2018-06-11T18:51:13.116Z,25.80
2018-06-11T18:53:45.675Z,25.70
2018-06-11T18:56:19.032Z,25.40
2018-06-11T18:59:20.606Z,25.20
2018-06-11T19:02:26.138Z,24.80
2018-06-11T19:05:18.416Z,24.50
2018-06-11T19:07:57.046Z,24.10
2018-06-11T19:10:32.137Z,23.80
2018-06-11T19:15:57.790Z,23.40
2018-06-11T19:18:35.507Z,23.10
2018-06-11T19:21:09.229Z,22.80
2018-06-11T19:23:50.600Z,22.70
2018-06-11T19:26:23.903Z,22.60
2018-06-11T19:29:05.357Z,22.50
2018-06-11T19:31:41.118Z,22.20
2018-06-11T19:37:03.480Z,21.60
2018-06-11T19:39:47.044Z,21.40
2018-06-11T19:42:21.433Z,21.30
2018-06-11T19:44:57.370Z,21.10
2018-06-11T19:47:30.877Z,21.00
2018-06-11T19:50:08.273Z,20.80
2018-06-11T19:52:43.860Z,20.80
2018-06-11T19:55:17.426Z,20.70
2018-06-11T19:57:56.636Z,20.60
2018-06-11T20:00:42.240Z,20.40
2018-06-11T20:03:45.485Z,20.30
2018-06-11T20:06:31.800Z,20.30
2018-06-11T20:09:38.586Z,20.20
2018-06-11T20:13:15.526Z,20.00
2018-06-11T20:16:05.831Z,19.90
2018-06-11T20:18:40.840Z,19.70
2018-06-11T20:26:57.840Z,19.50
2018-06-11T20:29:33.667Z,19.70
2018-06-11T20:32:11.969Z,19.70
2018-06-11T20:34:56.470Z,19.70
2018-06-11T20:37:31.003Z,19.90
2018-06-11T20:40:06.941Z,20.00
2018-06-11T20:42:43.100Z,20.10
2018-06-11T20:45:20.667Z,20.10
2018-06-11T20:47:58.859Z,20.20
2018-06-11T20:50:33.607Z,20.10
2018-06-11T20:53:09.173Z,19.90
2018-06-11T20:55:44.563Z,19.80
2018-06-11T20:58:20.517Z,19.90
2018-06-11T21:00:55.285Z,20.00
2018-06-11T21:03:28.804Z,20.00
2018-06-11T21:06:03.640Z,20.00
2018-06-11T21:08:40.018Z,20.00
2018-06-11T21:11:13.935Z,20.00
2018-06-11T21:13:50.943Z,20.00
2018-06-11T21:16:25.015Z,20.20
2018-06-11T21:19:00.985Z,20.30
2018-06-11T21:21:38.848Z,20.50
2018-06-11T21:24:11.311Z,20.70
2018-06-11T21:26:45.958Z,20.90
2018-06-11T21:29:18.761Z,20.90
2018-06-11T21:31:54.332Z,21.00
2018-06-11T21:34:34.570Z,21.00
2018-06-11T21:37:07.478Z,21.00
2018-06-11T21:42:28.913Z,20.90
2018-06-11T21:45:09.859Z,20.90
2018-06-11T21:47:42.606Z,20.90
2018-06-11T21:50:22.825Z,20.90
2018-06-11T21:53:02.703Z,20.80
2018-06-11T21:55:39.301Z,20.70
2018-06-11T21:58:12.556Z,20.70
2018-06-11T22:00:52.004Z,20.60
2018-06-11T22:03:30.296Z,20.60
2018-06-11T22:09:01.121Z,20.60
2018-06-11T22:11:38.299Z,20.50
2018-06-11T22:14:12.565Z,20.60
2018-06-11T22:16:48.539Z,20.60
2018-06-11T22:19:30.400Z,20.50
2018-06-11T22:22:03.829Z,20.30
2018-06-11T22:24:36.831Z,20.00
2018-06-11T22:27:32.138Z,19.80
2018-06-11T22:30:04.641Z,19.50
2018-06-11T22:32:39.799Z,19.50
2018-06-11T22:35:12.600Z,19.40
2018-06-11T22:40:51.477Z,19.30
2018-06-11T22:43:27.400Z,19.10
2018-06-11T22:46:02.939Z,18.80
2018-06-11T22:48:36.041Z,18.60
2018-06-11T22:54:02.855Z,18.40
2018-06-11T22:56:37.325Z,18.40
2018-06-11T22:59:09.892Z,18.30
2018-06-11T23:01:42.528Z,18.20
2018-06-11T23:04:14.987Z,18.10
2018-06-11T23:06:47.829Z,18.00
2018-06-11T23:09:23.917Z,17.90
2018-06-11T23:11:56.257Z,17.90
2018-06-11T23:14:34.744Z,18.00
2018-06-11T23:17:08.750Z,17.80
2018-06-11T23:19:42.276Z,17.70
2018-06-11T23:22:16.151Z,17.80
2018-06-11T23:24:59.641Z,17.90
2018-06-11T23:27:36.559Z,18.00
2018-06-11T23:30:10.516Z,18.00
2018-06-11T23:32:45.457Z,18.00
2018-06-11T23:35:20.678Z,17.90
2018-06-11T23:37:55.573Z,17.90
2018-06-11T23:40:36.773Z,17.90
2018-06-11T23:43:09.267Z,17.80
2018-06-11T23:45:41.834Z,17.70
2018-06-11T23:48:37.812Z,17.70
2018-06-11T23:51:29.158Z,17.80
2018-06-11T23:57:09.210Z,17.80
2018-06-11T23:59:43.085Z,17.80
